LexMAWeather

Lexington, Massachusetts, USA

20°F
12/11/2018 4:01am 
  • Lexington Conditions: Clear
  • Temperature: 19.6°F / -6.9°CColder 0.5°F than last hour.
  • Dew Point: 12.4°FDecreased 0.2°Fsince last hour.
  • Relative Humidity: 73%Increased 1.0% since last hour.
  • Wind: Calm, 10-min avg: Calm, gust: None
  • Barometer: 30.15 in Steady
  • Visibility: 10 miles
  • Snow Today: 0.0 in
  •   

Nearby Reports - Official Weather Stations - Current Conditions

Data from the National Weather Service

KBED - Bedford, MA


Distance from station: WNW 4mi, 6km

Updated Tue Dec 11, 2018 3:56am EST

Clear

Clear

Wind from calm

Wind:

Calm

Temperature: 12°F (-11°C)

Dew Point: 9°F (-13°C)

Humidity: 85%

Barometer: 30.18 in (1022 hPa)

Clouds: Clear

Visibility: 10 miles (16 km)


2018/12/11 08:56 KBED 110856Z AUTO 00000KT 10SM CLR M11/M13 A3018 RMK AO2 SLP237 I1000 I3000 T11061128 50000

KBOS - Boston, MA


Distance from station: ESE 12mi, 20km

Updated Tue Dec 11, 2018 3:54am EST

Clear

Clear

Wind from NNW

Wind:

NNW 7 mph , 11 km/h

Temperature: 25°F (-4°C)

Wind Chill: 17°F (-8°C)

Dew Point: 10°F (-12°C)

Humidity: 54%

Barometer: 30.19 in (1022.4 hPa)

Clouds: Clear

Visibility: 10 miles (16 km)


2018/12/11 08:54 KBOS 110854Z 33006KT 10SM CLR M04/M12 A3019 RMK AO2 SLP221 T10441122 50000

KOWD - Norwood, MA


Distance from station: SSE 18mi, 29km

Updated Tue Dec 11, 2018 3:53am EST

Clear

Clear

Wind from calm

Wind:

Calm

Temperature: 16°F (-9°C)

Dew Point: 10°F (-12°C)

Humidity: 79%

Barometer: 30.19 in (1022.4 hPa)

Clouds: Clear

Visibility: 10 miles (16 km)


2018/12/11 08:53 KOWD 110853Z AUTO 00000KT 10SM CLR M09/M12 A3019 RMK AO2 SLP222 I1000 I3000 T10891117 58002

KBVY - Beverly, MA


Distance from station: ENE 19mi, 31km

Updated Tue Dec 11, 2018 3:53am EST

Partly cloudy

Partly cloudy

Wind from NW

Wind:

NW 6 mph , 9 km/h

Temperature: 18°F (-8°C)

Wind Chill: 10°F (-12°C)

Dew Point: 9°F (-13°C)

Humidity: 68%

Barometer: 30.17 in (1021.7 hPa)

Clouds: Partly cloudy

Visibility: 10 miles (16 km)

Cloud details: Partly cloudy 2900 ft


2018/12/11 08:53 KBVY 110853Z AUTO 32005KT 10SM SCT029 M08/M13 A3017 RMK AO2 SLP216 T10781128 50000

KLWM - Lawrence, MA


Distance from station: NNE 20mi, 32km

Updated Tue Dec 11, 2018 3:54am EST

Mostly cloudy

Mostly cloudy

Wind from calm

Wind:

Calm

Temperature: 19°F (-7°C)

Dew Point: 10°F (-12°C)

Humidity: 68%

Barometer: 30.20 in (1022.7 hPa)

Clouds: Mostly cloudy

Visibility: 10 miles (16 km)

Cloud details: Mostly cloudy 2700 ft


2018/12/11 08:54 KLWM 110854Z AUTO 00000KT 10SM BKN027 M07/M12 A3020 RMK AO2 SLP229 T10721122 50001

KFIT - Fitchburg, MA


Distance from station: WNW 27mi, 44km

Updated Tue Dec 11, 2018 3:52am EST

Clear

Clear

Wind from NNW

Wind:

NNW 3 mph , 6 km/h

Temperature: 12°F (-11°C)

Dew Point: 10°F (-12°C)

Humidity: 92%

Barometer: 30.18 in (1022 hPa)

Clouds: Clear

Visibility: 10 miles (16 km)


2018/12/11 08:52 KFIT 110852Z AUTO 34003KT 10SM CLR M11/M12 A3018 RMK AO2 SLP227 T11111122 50000

KASH - Nashua/Boire Fld, NH


Distance from station: NNW 28mi, 44km

Updated Tue Dec 11, 2018 3:56am EST

Clear

Clear

Wind from WNW

Wind:

WNW 5 mph , 7 km/h

Temperature: 12°F (-11°C)

Wind Chill: 4°F (-16°C)

Dew Point: 10°F (-12°C)

Humidity: 92%

Barometer: 30.19 in (1022.4 hPa)

Clouds: Clear

Visibility: 10 miles (16 km)


2018/12/11 08:56 KASH 110856Z AUTO 30004KT 10SM CLR M11/M12 A3019 RMK AO2 SLP236 T11111122 50001 FZRANO $

KORH - Worcester, MA


Distance from station: WSW 34mi, 55km

Updated Tue Dec 11, 2018 3:54am EST

Clear

Clear

Wind from WNW

Wind:

WNW 5 mph , 7 km/h

Temperature: 18°F (-8°C)

Wind Chill: 11°F (-12°C)

Dew Point: 10°F (-12°C)

Humidity: 73%

Barometer: 30.11 in (1019.6 hPa)

Clouds: Clear

Visibility: 10 miles (16 km)


2018/12/11 08:54 KORH 110854Z AUTO 29004KT 10SM CLR M08/M12 A3011 RMK AO2 SLP213 T10831122 58003

KMHT - Manchester, NH


Distance from station: NNW 35mi, 57km

Updated Tue Dec 11, 2018 3:53am EST

Clear

Clear

Wind from calm

Wind:

Calm

Temperature: 16°F (-9°C)

Dew Point: 10°F (-12°C)

Humidity: 79%

Barometer: 30.17 in (1021.7 hPa)

Clouds: Clear

Visibility: 10 miles (16 km)


2018/12/11 08:53 KMHT 110853Z 00000KT 10SM CLR M09/M12 A3017 RMK AO2 SLP236 T10941122 50001

KGHG - Marshfield, MA


Distance from station: SE 38mi, 60km

Updated Tue Dec 11, 2018 3:55am EST

Clear

Clear

Wind from calm

Wind:

Calm

Temperature: 21°F (-6°C)

Dew Point: 16°F (-9°C)

Humidity: 80%

Barometer: 30.17 in (1021.7 hPa)

Clouds: Clear

Visibility: 10 miles (16 km)


2018/12/11 08:55 KGHG 110855Z AUTO 00000KT 10SM CLR M06/M09 A3017 RMK AO2

KSFZ - Pawtucket, RI


Distance from station: SSW 39mi, 62km

Updated Tue Dec 11, 2018 3:56am EST

Clear

Clear

Wind from calm

Wind:

Calm

Temperature: 18°F (-8°C)

Dew Point: 10°F (-12°C)

Humidity: 73%

Barometer: 30.16 in (1021.3 hPa)

Clouds: Clear

Visibility: 10 miles (16 km)


2018/12/11 08:56 KSFZ 110856Z AUTO 00000KT 10SM CLR M08/M12 A3016 RMK AO2 SLP165 T10831117 58002 FZRANO

KTAN - Taunton, MA


Distance from station: SSE 40mi, 65km

Updated Tue Dec 11, 2018 3:52am EST

Clear

Clear

Wind from calm

Wind:

Calm

Temperature: 12°F (-11°C)

Dew Point: 9°F (-13°C)

Humidity: 85%

Barometer: 30.17 in (1021.7 hPa)

Clouds: Clear

Visibility: 7 miles (11 km)


2018/12/11 08:52 KTAN 110852Z AUTO 00000KT 7SM CLR M11/M13 A3017 RMK AO2 SLP217 I3000 T11061133 58003

KPYM - Plymouth, MA


Distance from station: SE 44mi, 72km

Updated Tue Dec 11, 2018 3:52am EST

Clear

Clear

Wind from calm

Wind:

Calm

Temperature: 18°F (-8°C)

Dew Point: 12°F (-11°C)

Humidity: 79%

Barometer: 30.17 in (1021.7 hPa)

Clouds: Clear

Visibility: 10 miles (16 km)


2018/12/11 08:52 KPYM 110852Z AUTO 00000KT 10SM CLR M08/M11 A3017 RMK AO2 SLP218 T10781111 58001

KAFN - Jaffrey, NH


Distance from station: WNW 46mi, 74km

Updated Tue Dec 11, 2018 3:52am EST

Clear

Clear

Wind from calm

Wind:

Calm

Temperature: 9°F (-13°C)

Dew Point: 7°F (-14°C)

Humidity: 92%

Barometer: 30.11 in (1019.6 hPa)

Clouds: Clear

Visibility: 10 miles (16 km)


2018/12/11 08:52 KAFN 110852Z AUTO 00000KT 10SM CLR M13/M14 A3011 RMK AO2 SLP221 I1000 I3000 T11331144 58000

KPSM - Portsmouth/Pease, NH


Distance from station: NNE 48mi, 78km

Updated Tue Dec 11, 2018 3:56am EST

Clear

Clear

Wind from NW

Wind:

NW 8 mph , 13 km/h

Temperature: 14°F (-10°C)

Wind Chill: 3°F (-16°C)

Dew Point: 7°F (-14°C)

Humidity: 73%

Barometer: 30.17 in (1021.7 hPa)

Clouds: Clear

Visibility: 10 miles (16 km)


2018/12/11 08:56 KPSM 110856Z 31007KT 10SM CLR M10/M14 A3017 RMK AO2A SLP220 T11001136 50000

KPVD - Providence/Green, RI


Distance from station: S 51mi, 82km

Updated Tue Dec 11, 2018 3:51am EST

Clear

Clear

Wind from WNW

Wind:

WNW 3 mph , 6 km/h

Temperature: 18°F (-8°C)

Dew Point: 14°F (-10°C)

Humidity: 86%

Barometer: 30.19 in (1022.4 hPa)

Clouds: Clear

Visibility: 10 miles (16 km)


2018/12/11 08:51 KPVD 110851Z 30003KT 10SM CLR M08/M10 A3019 RMK AO2 SLP222 T10781100 58002

KCON - Concord, NH


Distance from station: NNW 54mi, 87km

Updated Tue Dec 11, 2018 3:51am EST

Clear

Clear

Wind from calm

Wind:

Calm

Temperature: 9°F (-13°C)

Dew Point: 5°F (-15°C)

Humidity: 85%

Barometer: 30.17 in (1021.7 hPa)

Clouds: Clear

Visibility: 10 miles (16 km)


2018/12/11 08:51 KCON 110851Z AUTO 00000KT 10SM CLR M13/M15 A3017 RMK AO2 SLP224 I1000 I3000 T11281150 50002

KEWB - New Bedford, MA


Distance from station: SSE 54mi, 87km

Updated Tue Dec 11, 2018 3:53am EST

Clear

Clear

Wind from calm

Wind:

Calm

Temperature: 18°F (-8°C)

Dew Point: 16°F (-9°C)

Humidity: 93%

Barometer: 30.17 in (1021.7 hPa)

Clouds: Clear

Visibility: 10 miles (16 km)


2018/12/11 08:53 KEWB 110853Z AUTO 00000KT 10SM CLR M08/M09 A3017 RMK AO2 SLP217 T10831094 50000

KMWN - Mount Washington, NH


Distance from station: N 126mi, 203km

Updated Tue Dec 11, 2018 2:52am EST

Partly cloudy

Partly cloudy

Wind from W

Wind:

W 29 mph , 46 km/h

Temperature: 12°F (-11°C)

Wind Chill: -9°F (-23°C)

Dew Point: -15°F (-26°C)

Humidity: 28%

Clouds: Partly cloudy

Visibility: 130 miles (208 km)

Cloud details: Few Clouds 1000 ft
Few Clouds 10000 ft
Partly cloudy 17000 ft


2018/12/11 07:52 KMWN 110752Z 27025KT 130SM FEW010 FEW100 SCT170 M11/M26 RMK ACSL NE